Time;durP1;ratioP1;P1;durP2;ratioP2;P2;SDS_P1;SDS_P2;PMS_P1;PMS_P2;Temp;Humidity;BMP_temperature;BMP_pressure;BME280_temperature;BME280_humidity;BME280_pressure;Samples;Min_cycle;Max_cycle;Signal;HPM_P1;HPM_P2
2023/03/26 00:01:48;;;;;;;25.00;3.22;;;10.10;99.90;;;;;;4968813;28;20712;-84
2023/03/26 00:04:18;;;;;;;13.30;2.78;;;10.10;99.90;;;;;;4969357;28;20106;-85
2023/03/26 00:06:47;;;;;;;19.00;3.65;;;10.10;99.90;;;;;;4961749;28;20130;-86
2023/03/26 00:09:17;;;;;;;19.25;2.75;;;10.10;99.90;;;;;;4967345;28;20043;-84
2023/03/26 00:11:46;;;;;;;20.02;4.32;;;10.10;99.90;;;;;;4969936;28;20402;-84
2023/03/26 00:14:12;;;;;;;29.55;3.88;;;10.10;99.90;;;;;;4969373;28;20027;-84
2023/03/26 00:16:40;;;;;;;22.77;4.35;;;10.10;99.90;;;;;;4954158;28;20030;-83
2023/03/26 00:19:06;;;;;;;22.25;4.25;;;10.10;99.90;;;;;;4948727;28;21238;-84
2023/03/26 00:21:34;;;;;;;13.93;3.45;;;10.10;99.90;;;;;;4954460;28;20051;-84
2023/03/26 00:24:08;;;;;;;22.55;4.75;;;10.00;99.90;;;;;;4955577;28;20057;-85
2023/03/26 00:26:36;;;;;;;24.27;4.40;;;10.10;99.90;;;;;;4967795;28;20018;-83
2023/03/26 00:29:02;;;;;;;27.45;4.30;;;10.10;99.90;;;;;;4950998;28;20361;-84
2023/03/26 00:31:29;;;;;;;17.95;3.97;;;10.10;99.90;;;;;;4957591;28;20112;-84
2023/03/26 00:33:58;;;;;;;25.27;4.45;;;10.10;99.90;;;;;;4951156;28;20126;-84
2023/03/26 00:36:25;;;;;;;36.85;4.70;;;10.20;99.90;;;;;;4968555;28;20565;-84
2023/03/26 00:38:52;;;;;;;24.58;4.38;;;10.20;99.90;;;;;;4968737;28;20076;-84
2023/03/26 00:41:24;;;;;;;25.52;5.10;;;10.20;99.90;;;;;;4966762;28;20037;-84
2023/03/26 00:43:57;;;;;;;21.47;4.60;;;10.20;99.90;;;;;;4967375;28;20031;-84
2023/03/26 00:46:25;;;;;;;34.75;5.30;;;10.20;99.90;;;;;;4961061;28;20395;-84
2023/03/26 00:48:50;;;;;;;29.25;4.70;;;10.20;99.90;;;;;;4966726;28;20016;-84
2023/03/26 00:51:18;;;;;;;25.33;4.50;;;10.20;99.90;;;;;;4946804;28;20035;-84
2023/03/26 00:53:48;;;;;;;26.80;4.47;;;10.10;99.90;;;;;;4945611;28;20136;-84
2023/03/26 00:56:14;;;;;;;28.98;5.45;;;10.20;99.90;;;;;;4947373;28;20022;-85
2023/03/26 00:58:43;;;;;;;26.70;4.05;;;10.20;99.90;;;;;;4969133;28;20022;-84
2023/03/26 01:01:12;;;;;;;25.52;4.63;;;10.20;99.90;;;;;;4965964;28;20466;-84
2023/03/26 01:03:39;;;;;;;32.50;5.20;;;10.20;99.90;;;;;;4969021;28;20353;-84
2023/03/26 01:06:26;;;;;;;23.42;4.20;;;10.20;99.90;;;;;;4973964;28;20019;-83
2023/03/26 01:08:53;;;;;;;25.70;4.50;;;10.20;99.90;;;;;;4965229;28;20027;-84
2023/03/26 01:11:25;;;;;;;30.65;4.85;;;10.20;99.90;;;;;;4968804;28;20028;-84
2023/03/26 01:13:56;;;;;;;35.60;4.70;;;10.10;99.90;;;;;;4968259;28;20467;-84
2023/03/26 01:16:31;;;;;;;23.83;3.97;;;10.10;99.90;;;;;;4970375;28;20175;-84
2023/03/26 01:18:59;;;;;;;31.02;4.22;;;10.10;99.90;;;;;;4963807;28;20105;-84
2023/03/26 01:21:29;;;;;;;26.05;3.95;;;10.10;99.90;;;;;;4968642;28;20061;-83
2023/03/26 01:24:01;;;;;;;40.75;5.30;;;10.20;99.90;;;;;;4967977;28;20471;-83
2023/03/26 01:26:36;;;;;;;34.75;4.80;;;10.10;99.90;;;;;;4971036;28;20027;-84
2023/03/26 01:29:03;;;;;;;19.05;4.15;;;10.10;99.90;;;;;;4964675;28;20102;-83
2023/03/26 01:31:47;;;;;;;36.97;4.57;;;10.10;99.90;;;;;;4960155;28;20019;-84
2023/03/26 01:34:37;;;;;;;30.08;4.13;;;10.10;99.90;;;;;;4963053;28;20053;-84
2023/03/26 01:37:12;;;;;;;37.63;4.95;;;10.10;99.90;;;;;;4981002;28;20027;-83
2023/03/26 01:40:08;;;;;;;31.10;4.65;;;10.00;99.90;;;;;;4962713;28;20329;-83
2023/03/26 01:42:46;;;;;;;25.83;4.07;;;10.00;99.90;;;;;;4991951;28;20042;-83
2023/03/26 01:45:20;;;;;;;32.25;5.28;;;10.00;99.90;;;;;;4970093;28;20015;-82
2023/03/26 01:47:46;;;;;;;22.90;3.85;;;10.00;99.90;;;;;;4998473;28;20045;-83
2023/03/26 01:50:12;;;;;;;30.20;4.93;;;9.90;99.90;;;;;;4975633;28;20565;-84
2023/03/26 01:52:38;;;;;;;30.90;4.47;;;9.90;99.90;;;;;;4983647;28;20073;-83
2023/03/26 01:55:10;;;;;;;41.72;4.60;;;9.90;99.90;;;;;;4974636;28;20443;-83
2023/03/26 01:57:46;;;;;;;35.65;5.35;;;9.90;99.90;;;;;;4975845;28;20031;-84
2023/03/26 02:00:18;;;;;;;43.67;5.22;;;9.90;99.90;;;;;;4977078;28;20058;-84
2023/03/26 02:02:50;;;;;;;33.55;5.25;;;9.90;99.90;;;;;;4975467;28;20060;-84
2023/03/26 02:05:21;;;;;;;;;;;9.90;99.90;;;;;;4960508;28;20026;-83
2023/03/26 02:08:08;;;;;;;28.13;3.92;;;9.80;99.90;;;;;;4977082;28;20387;-84
2023/03/26 02:10:37;;;;;;;31.15;4.57;;;9.80;99.90;;;;;;4957831;28;20031;-83
2023/03/26 02:13:04;;;;;;;42.20;5.03;;;9.80;99.90;;;;;;4975614;28;20028;-83
2023/03/26 02:15:30;;;;;;;31.52;5.55;;;9.70;99.90;;;;;;4980300;28;20478;-83
2023/03/26 02:17:58;;;;;;;26.83;4.78;;;9.60;99.90;;;;;;4978244;28;20023;-83
2023/03/26 02:20:28;;;;;;;30.88;5.13;;;9.50;99.90;;;;;;4977910;28;20076;-83
2023/03/26 02:22:57;;;;;;;30.33;5.47;;;9.50;99.90;;;;;;4958563;28;20029;-83
2023/03/26 02:25:23;;;;;;;54.22;5.30;;;9.50;99.90;;;;;;4975544;28;20031;-83
2023/03/26 02:27:50;;;;;;;39.95;5.40;;;9.50;99.90;;;;;;4975688;28;20034;-84
2023/03/26 02:30:20;;;;;;;42.15;5.75;;;9.50;99.90;;;;;;4961564;28;20035;-83
2023/03/26 02:32:51;;;;;;;27.85;6.15;;;9.40;99.90;;;;;;4976099;28;20403;-85
2023/03/26 02:35:16;;;;;;;33.38;5.47;;;9.40;99.90;;;;;;4957891;28;20026;-83
2023/03/26 02:37:45;;;;;;;34.05;5.00;;;9.40;99.90;;;;;;4972789;28;20034;-83
2023/03/26 02:40:11;;;;;;;29.40;5.55;;;9.40;99.90;;;;;;4959931;28;20117;-82
2023/03/26 02:42:37;;;;;;;36.95;5.30;;;9.40;99.90;;;;;;4974963;28;20508;-83
2023/03/26 02:45:05;;;;;;;28.98;4.97;;;9.50;99.90;;;;;;4969171;28;20041;-82
2023/03/26 02:47:32;;;;;;;40.78;6.47;;;9.50;99.90;;;;;;4956192;28;20026;-85
2023/03/26 02:49:58;;;;;;;33.90;5.45;;;9.60;99.90;;;;;;4955465;28;20046;-83
2023/03/26 02:52:23;;;;;;;35.95;5.90;;;9.60;99.90;;;;;;4973908;28;20027;-83
2023/03/26 02:54:49;;;;;;;20.58;4.68;;;9.60;99.90;;;;;;4972921;28;20035;-85
2023/03/26 02:57:15;;;;;;;24.35;4.63;;;9.60;99.90;;;;;;4958247;28;20034;-84
2023/03/26 02:59:41;;;;;;;33.40;5.05;;;9.60;99.90;;;;;;4963125;28;20018;-80
2023/03/26 03:02:06;;;;;;;34.80;5.18;;;9.70;99.90;;;;;;4970053;28;20104;-80
2023/03/26 03:04:32;;;;;;;29.58;5.00;;;9.70;99.90;;;;;;4975332;28;20101;-83
2023/03/26 03:06:58;;;;;;;30.63;4.18;;;9.70;99.90;;;;;;4971320;28;20103;-83
2023/03/26 03:09:24;;;;;;;35.35;4.32;;;9.70;99.90;;;;;;4974721;28;20031;-83
2023/03/26 03:11:52;;;;;;;26.58;4.18;;;9.70;99.90;;;;;;4973181;28;20045;-80
2023/03/26 03:14:18;;;;;;;30.83;4.70;;;9.70;99.90;;;;;;4977682;28;20298;-80
2023/03/26 03:16:44;;;;;;;30.05;4.43;;;9.70;99.90;;;;;;4948290;28;20441;-82
2023/03/26 03:19:10;;;;;;;28.40;4.20;;;9.70;99.90;;;;;;4957988;28;20090;-81
2023/03/26 03:21:35;;;;;;;23.98;4.13;;;9.70;99.90;;;;;;4958268;28;20374;-81
2023/03/26 03:24:01;;;;;;;39.05;5.20;;;9.70;99.90;;;;;;4959625;28;20027;-80
2023/03/26 03:26:28;;;;;;;30.60;3.95;;;9.70;99.90;;;;;;4974234;28;20386;-81
2023/03/26 03:28:56;;;;;;;31.08;3.83;;;9.70;99.90;;;;;;4970477;28;20030;-80
2023/03/26 03:31:25;;;;;;;26.08;4.15;;;9.70;99.90;;;;;;4972746;28;20023;-83
2023/03/26 03:33:51;;;;;;;37.50;4.32;;;9.70;99.90;;;;;;4956767;28;20031;-83
2023/03/26 03:36:22;;;;;;;32.97;4.13;;;9.70;99.90;;;;;;4974184;28;20513;-83
2023/03/26 03:38:48;;;;;;;27.23;3.22;;;9.70;99.90;;;;;;4957670;28;20019;-84
2023/03/26 03:41:14;;;;;;;31.95;4.38;;;9.70;99.90;;;;;;4972202;28;20182;-84
2023/03/26 03:43:40;;;;;;;29.23;3.78;;;9.70;99.90;;;;;;4965243;28;20122;-84
2023/03/26 03:46:05;;;;;;;25.95;3.35;;;9.80;99.90;;;;;;4967146;28;20434;-81
2023/03/26 03:48:36;;;;;;;29.25;3.58;;;9.80;99.90;;;;;;4970288;28;20049;-85
2023/03/26 03:51:03;;;;;;;20.23;3.55;;;9.80;99.90;;;;;;4973572;28;20050;-84
2023/03/26 03:53:29;;;;;;;29.13;5.30;;;9.80;99.90;;;;;;4958039;28;20068;-83
2023/03/26 03:55:55;;;;;;;21.08;3.42;;;9.80;99.90;;;;;;4977560;28;20056;-83
2023/03/26 03:58:23;;;;;;;28.17;3.95;;;9.80;99.90;;;;;;4977703;28;20487;-84
2023/03/26 04:00:50;;;;;;;24.23;3.42;;;9.70;99.90;;;;;;4968752;28;20034;-83
2023/03/26 04:03:19;;;;;;;26.40;3.30;;;9.70;99.90;;;;;;4969814;28;20145;-81
2023/03/26 04:05:48;;;;;;;24.42;3.38;;;9.70;99.90;;;;;;4953673;28;20112;-81
2023/03/26 04:08:15;;;;;;;30.38;3.70;;;9.70;99.90;;;;;;4973768;28;20266;-81
2023/03/26 04:10:42;;;;;;;29.52;4.00;;;9.70;99.90;;;;;;4971328;28;20026;-81
2023/03/26 04:13:09;;;;;;;30.27;3.55;;;9.70;99.90;;;;;;4974902;28;20259;-83
2023/03/26 04:15:35;;;;;;;21.05;3.47;;;9.70;99.90;;;;;;4973397;28;20034;-84
2023/03/26 04:18:03;;;;;;;23.67;3.28;;;9.70;99.90;;;;;;4972319;28;20092;-83
2023/03/26 04:20:29;;;;;;;22.52;3.83;;;9.70;99.90;;;;;;4972185;28;20026;-84
2023/03/26 04:22:56;;;;;;;24.30;3.35;;;9.70;99.90;;;;;;4972135;28;20154;-83
2023/03/26 04:25:29;;;;;;;31.50;4.03;;;9.60;99.90;;;;;;4955450;28;20033;-81
2023/03/26 04:27:57;;;;;;;20.75;3.15;;;9.70;99.90;;;;;;4952529;28;20595;-81
2023/03/26 04:30:26;;;;;;;25.52;3.67;;;9.70;99.90;;;;;;4972144;28;20034;-82
2023/03/26 04:32:51;;;;;;;23.88;3.45;;;9.80;99.90;;;;;;4949277;28;20109;-84
2023/03/26 04:35:18;;;;;;;32.92;3.63;;;9.80;99.90;;;;;;4974047;28;20071;-84
2023/03/26 04:37:46;;;;;;;27.95;4.00;;;9.80;99.90;;;;;;4956984;28;20058;-84
2023/03/26 04:40:19;;;;;;;28.33;3.28;;;9.90;99.90;;;;;;4977694;28;20182;-84
2023/03/26 04:42:45;;;;;;;32.63;3.35;;;9.90;99.90;;;;;;4964868;28;20030;-80
2023/03/26 04:45:12;;;;;;;23.58;3.53;;;9.90;99.90;;;;;;4963925;28;20161;-81
2023/03/26 04:47:38;;;;;;;31.75;4.18;;;10.00;99.90;;;;;;4947610;28;20261;-82
2023/03/26 04:50:09;;;;;;;29.77;3.45;;;9.90;99.90;;;;;;4947477;28;20034;-82
2023/03/26 04:52:35;;;;;;;24.83;3.88;;;9.90;99.90;;;;;;4970578;28;20038;-81
2023/03/26 04:55:02;;;;;;;24.40;3.35;;;9.90;99.90;;;;;;4974916;28;20019;-82
2023/03/26 04:57:38;;;;;;;23.95;4.38;;;9.90;99.90;;;;;;4974672;28;20094;-81
2023/03/26 05:00:18;;;;;;;30.90;3.22;;;9.90;99.90;;;;;;4981603;28;20022;-81
2023/03/26 05:02:44;;;;;;;23.98;3.78;;;9.80;99.90;;;;;;4969377;28;20504;-81
2023/03/26 05:05:10;;;;;;;25.73;3.50;;;9.80;99.90;;;;;;4951721;28;20026;-81
2023/03/26 05:07:36;;;;;;;27.08;3.42;;;9.80;99.90;;;;;;4967505;28;20148;-81
2023/03/26 05:10:04;;;;;;;16.63;2.58;;;9.80;99.90;;;;;;4975581;28;20106;-81
2023/03/26 05:12:29;;;;;;;26.90;3.58;;;9.70;99.90;;;;;;4973157;28;20019;-83
2023/03/26 05:14:55;;;;;;;26.52;3.58;;;9.80;99.90;;;;;;4959447;28;20114;-85
2023/03/26 05:17:23;;;;;;;19.92;3.20;;;9.80;99.90;;;;;;4964443;28;20506;-85
2023/03/26 05:19:50;;;;;;;22.00;3.40;;;9.70;99.90;;;;;;4976234;28;20039;-86
2023/03/26 05:22:19;;;;;;;20.70;3.38;;;9.80;99.90;;;;;;4972455;28;20027;-82
2023/03/26 05:24:45;;;;;;;32.80;3.42;;;9.70;99.90;;;;;;4964592;28;20015;-83
2023/03/26 05:27:15;;;;;;;25.83;3.63;;;9.70;99.90;;;;;;4977612;28;20019;-84
2023/03/26 05:29:41;;;;;;;25.50;3.13;;;9.70;99.90;;;;;;4979666;28;20026;-84
2023/03/26 05:32:09;;;;;;;22.27;3.22;;;9.80;99.90;;;;;;4961019;28;20037;-84
2023/03/26 05:34:34;;;;;;;26.02;3.22;;;9.80;99.90;;;;;;4978056;28;20471;-84
2023/03/26 05:37:02;;;;;;;31.63;4.20;;;9.70;99.90;;;;;;4980821;28;20102;-84
2023/03/26 05:39:28;;;;;;;16.23;3.38;;;9.80;99.90;;;;;;4960533;28;20061;-86
2023/03/26 05:41:54;;;;;;;27.75;3.47;;;9.80;99.90;;;;;;4965613;28;20566;-84
2023/03/26 05:44:20;;;;;;;30.80;3.80;;;9.60;99.90;;;;;;4960253;28;20537;-81
2023/03/26 05:46:46;;;;;;;26.63;3.72;;;9.60;99.90;;;;;;4961052;28;20058;-84
2023/03/26 05:49:11;;;;;;;26.13;3.60;;;9.60;99.90;;;;;;4978713;28;20027;-84
2023/03/26 05:51:37;;;;;;;33.08;3.92;;;9.60;99.90;;;;;;4970962;28;20046;-84
2023/03/26 05:54:03;;;;;;;23.30;3.67;;;9.60;99.90;;;;;;4978189;28;20072;-83
2023/03/26 05:56:29;;;;;;;22.33;3.33;;;9.60;99.90;;;;;;4976649;28;20454;-84
2023/03/26 05:58:55;;;;;;;18.98;3.28;;;9.70;99.90;;;;;;4975071;28;20065;-83
2023/03/26 06:01:21;;;;;;;26.88;4.32;;;9.70;99.90;;;;;;4958608;28;20082;-84
2023/03/26 06:03:47;;;;;;;26.33;3.90;;;9.60;99.90;;;;;;4976423;28;20022;-84
2023/03/26 06:06:15;;;;;;;22.20;3.47;;;9.70;99.90;;;;;;4963171;28;20027;-84
2023/03/26 06:08:49;;;;;;;26.00;3.75;;;9.70;99.90;;;;;;4994818;28;20022;-82
2023/03/26 06:11:16;;;;;;;19.50;2.92;;;9.70;99.90;;;;;;5001752;28;20031;-84
2023/03/26 06:13:43;;;;;;;28.15;3.67;;;9.70;99.90;;;;;;5000969;28;20039;-83
2023/03/26 06:16:09;;;;;;;23.42;4.28;;;9.70;99.90;;;;;;4995162;28;20034;-83
2023/03/26 06:18:36;;;;;;;27.80;4.53;;;9.70;99.90;;;;;;4981574;28;20038;-83
2023/03/26 06:21:02;;;;;;;27.63;3.85;;;9.70;99.90;;;;;;4954297;28;20387;-83
2023/03/26 06:23:28;;;;;;;29.88;3.70;;;9.70;99.90;;;;;;4973068;28;20014;-81
2023/03/26 06:25:54;;;;;;;25.88;3.67;;;9.70;99.90;;;;;;4975335;28;20395;-83
2023/03/26 06:28:19;;;;;;;23.95;3.53;;;9.70;99.90;;;;;;4979990;28;20098;-83
2023/03/26 06:30:45;;;;;;;31.92;3.90;;;9.70;99.90;;;;;;4969022;28;20041;-83
2023/03/26 06:33:13;;;;;;;34.88;3.63;;;9.80;99.90;;;;;;4984832;28;20157;-83
2023/03/26 06:35:39;;;;;;;29.63;3.55;;;9.70;99.90;;;;;;4966187;28;20027;-83
2023/03/26 06:38:07;;;;;;;22.75;2.83;;;9.80;99.90;;;;;;4987814;28;20029;-82
2023/03/26 06:40:33;;;;;;;24.70;3.40;;;9.90;99.90;;;;;;4979499;28;20019;-83
2023/03/26 06:42:59;;;;;;;28.15;3.92;;;9.90;99.90;;;;;;4995054;28;20003;-83
2023/03/26 06:45:29;;;;;;;32.05;4.18;;;9.90;99.90;;;;;;4978304;28;20030;-79
2023/03/26 06:47:54;;;;;;;26.73;3.90;;;9.80;99.90;;;;;;4986645;28;20114;-82
2023/03/26 06:50:23;;;;;;;21.05;4.13;;;9.80;99.90;;;;;;4962184;28;20439;-80
2023/03/26 06:52:51;;;;;;;15.48;4.05;;;9.90;99.90;;;;;;4952992;28;20038;-84
2023/03/26 06:55:17;;;;;;;29.48;4.38;;;9.80;99.90;;;;;;4973962;28;20081;-84
2023/03/26 06:57:46;;;;;;;21.85;3.72;;;9.80;99.90;;;;;;4979650;28;20026;-83
2023/03/26 07:00:13;;;;;;;17.88;3.60;;;9.80;99.90;;;;;;4975456;28;20023;-84
2023/03/26 07:02:38;;;;;;;18.75;3.53;;;9.80;99.90;;;;;;4968400;28;20358;-84
2023/03/26 07:05:04;;;;;;;22.27;3.85;;;9.80;99.90;;;;;;4969904;28;20311;-84
2023/03/26 07:07:31;;;;;;;21.67;3.58;;;9.80;99.90;;;;;;4977910;28;20054;-84
2023/03/26 07:09:56;;;;;;;20.13;4.13;;;9.80;99.90;;;;;;4979164;28;20039;-83
2023/03/26 07:12:22;;;;;;;25.45;3.58;;;9.90;99.90;;;;;;4963797;28;20119;-85
2023/03/26 07:14:48;;;;;;;14.90;3.83;;;9.90;99.90;;;;;;4982675;28;20031;-84
2023/03/26 07:17:13;;;;;;;26.90;3.88;;;9.90;99.90;;;;;;4961516;28;20023;-83
2023/03/26 07:19:39;;;;;;;25.02;3.83;;;9.90;99.90;;;;;;4976026;28;20084;-84
2023/03/26 07:22:05;;;;;;;18.27;3.47;;;10.00;99.90;;;;;;4976929;28;20029;-84
2023/03/26 07:24:30;;;;;;;26.98;3.65;;;10.10;99.90;;;;;;4967544;28;20022;-83
2023/03/26 07:27:25;;;;;;;27.20;3.95;;;10.20;99.90;;;;;;4956579;28;20030;-83
2023/03/26 07:29:55;;;;;;;22.95;3.13;;;10.20;99.90;;;;;;4966201;28;20125;-83
2023/03/26 07:32:42;;;;;;;19.92;3.33;;;10.20;99.90;;;;;;4979954;28;20015;-83
2023/03/26 07:35:16;;;;;;;19.25;2.72;;;10.20;99.90;;;;;;4975678;28;20046;-81
2023/03/26 07:38:19;;;;;;;11.85;3.28;;;10.30;99.90;;;;;;4972787;28;20038;-80
2023/03/26 07:41:29;;;;;;;12.93;3.10;;;10.30;99.90;;;;;;4952123;28;20030;-82
2023/03/26 07:44:19;;;;;;;21.25;3.20;;;10.30;99.90;;;;;;4972172;28;20030;-85
2023/03/26 07:46:46;;;;;;;17.33;3.50;;;10.40;99.90;;;;;;4975072;28;20031;-86
2023/03/26 07:49:13;;;;;;;15.88;3.00;;;10.40;99.90;;;;;;4975003;28;20030;-81
2023/03/26 07:51:39;;;;;;;13.77;3.40;;;10.40;99.90;;;;;;4981451;28;20035;-80
2023/03/26 07:54:05;;;;;;;24.90;5.30;;;10.50;99.90;;;;;;4967620;28;20029;-81
2023/03/26 07:56:40;;;;;;;16.15;3.47;;;10.60;99.90;;;;;;4964162;28;20529;-80
2023/03/26 07:59:52;;;;;;;16.15;3.60;;;10.60;99.90;;;;;;4971875;28;20661;-83
2023/03/26 08:02:40;;;;;;;18.13;3.15;;;10.60;99.90;;;;;;4913385;28;20150;-85
2023/03/26 08:05:09;;;;;;;15.32;3.70;;;10.70;99.90;;;;;;4974605;28;20026;-84
2023/03/26 08:07:59;;;;;;;27.67;4.03;;;10.70;99.90;;;;;;4975687;28;20030;-84
2023/03/26 08:10:52;;;;;;;15.60;4.15;;;10.80;99.90;;;;;;5122193;23;20045;-82
2023/03/26 08:13:37;;;;;;;20.05;3.95;;;10.80;99.90;;;;;;4958073;28;20093;-84
2023/03/26 08:16:12;;;;;;;22.85;4.55;;;10.80;99.90;;;;;;4962672;28;20023;-83
2023/03/26 08:19:06;;;;;;;25.00;4.63;;;10.80;99.90;;;;;;4964089;28;20023;-84
2023/03/26 08:21:49;;;;;;;19.02;4.05;;;10.80;99.90;;;;;;4962476;28;20119;-82
2023/03/26 08:24:26;;;;;;;23.15;4.72;;;10.80;99.90;;;;;;4962600;28;20022;-82
2023/03/26 08:27:05;;;;;;;18.33;4.03;;;10.90;99.90;;;;;;4953013;28;20054;-82
2023/03/26 08:30:04;;;;;;;22.15;4.55;;;11.00;99.90;;;;;;4973226;28;20495;-83
2023/03/26 08:32:30;;;;;;;20.80;4.07;;;11.00;99.90;;;;;;4958652;28;20054;-84
2023/03/26 08:34:58;;;;;;;22.73;3.95;;;11.00;99.90;;;;;;4959847;28;20424;-82
2023/03/26 08:37:26;;;;;;;16.75;4.30;;;11.00;99.90;;;;;;4954432;28;20374;-81
2023/03/26 08:39:51;;;;;;;18.10;4.20;;;10.90;99.90;;;;;;4955562;28;20457;-84
2023/03/26 08:42:41;;;;;;;19.13;4.15;;;10.90;99.90;;;;;;4962226;28;20027;-83
2023/03/26 08:45:21;;;;;;;16.40;3.97;;;10.90;99.90;;;;;;4977803;28;20198;-84
2023/03/26 08:48:06;;;;;;;19.20;4.05;;;11.00;99.90;;;;;;4960555;28;20053;-84
2023/03/26 08:50:57;;;;;;;23.98;4.20;;;11.00;99.90;;;;;;4956701;28;20042;-83
2023/03/26 08:53:50;;;;;;;433.30;147.45;;;11.00;99.90;;;;;;4969782;28;20069;-82
2023/03/26 08:56:31;;;;;;;33.40;10.15;;;11.10;99.90;;;;;;4971313;28;20034;-84
2023/03/26 08:59:05;;;;;;;20.10;4.60;;;11.10;99.90;;;;;;4968602;28;20066;-83
2023/03/26 09:01:53;;;;;;;24.13;3.90;;;11.30;99.90;;;;;;4964777;28;20018;-84
2023/03/26 09:04:52;;;;;;;17.75;4.10;;;11.30;99.90;;;;;;4967357;28;20156;-83
2023/03/26 09:07:49;;;;;;;19.55;3.65;;;11.30;99.90;;;;;;4970669;28;20502;-83
2023/03/26 09:10:33;;;;;;;15.32;3.97;;;11.40;99.90;;;;;;4976837;28;20053;-83
2023/03/26 09:13:34;;;;;;;17.75;3.45;;;11.40;99.90;;;;;;4973069;28;20316;-83
2023/03/26 09:16:15;;;;;;;22.85;3.97;;;11.40;99.90;;;;;;4945175;28;20030;-83
2023/03/26 09:19:00;;;;;;;13.23;3.42;;;11.40;99.90;;;;;;4978643;28;20030;-83
2023/03/26 09:21:53;;;;;;;10.60;2.67;;;11.40;99.90;;;;;;4979882;28;20054;-82
2023/03/26 09:24:53;;;;;;;20.60;3.67;;;11.40;99.90;;;;;;4963379;28;20114;-80
2023/03/26 09:27:27;;;;;;;16.00;3.30;;;11.40;99.90;;;;;;4978332;28;20084;-81
2023/03/26 09:29:58;;;;;;;15.13;3.33;;;11.40;99.90;;;;;;4973334;28;20389;-82
2023/03/26 09:32:35;;;;;;;18.85;3.20;;;11.40;99.90;;;;;;4957235;28;20035;-81
2023/03/26 09:35:37;;;;;;;11.27;3.35;;;11.40;99.90;;;;;;4952899;28;20479;-79
2023/03/26 09:38:17;;;;;;;454.40;170.27;;;11.50;99.90;;;;;;4968787;28;20027;-83
2023/03/26 09:41:14;;;;;;;417.08;142.93;;;11.60;99.90;;;;;;4971599;28;20038;-89
2023/03/26 09:44:24;;;;;;;17.95;4.32;;;11.60;99.90;;;;;;4975708;28;20027;-89
2023/03/26 09:46:50;;;;;;;17.20;2.95;;;11.50;99.90;;;;;;4903500;29;20032;-84
2023/03/26 09:49:42;;;;;;;15.82;3.38;;;11.40;99.90;;;;;;4947774;28;20054;-82
2023/03/26 09:52:27;;;;;;;13.15;2.65;;;11.40;99.90;;;;;;4963528;28;20042;-83
2023/03/26 09:54:53;;;;;;;15.93;3.03;;;11.30;99.90;;;;;;4974139;28;20461;-82
2023/03/26 09:57:56;;;;;;;10.68;3.33;;;11.30;99.90;;;;;;4974089;28;20057;-82
2023/03/26 10:00:25;;;;;;;;;;;11.30;99.90;;;;;;4960270;28;20027;-86
2023/03/26 10:03:20;;;;;;;14.27;3.33;;;11.30;99.90;;;;;;4960331;28;20001;-81
2023/03/26 10:05:51;;;;;;;16.08;3.33;;;11.30;99.90;;;;;;4969820;28;20034;-81
2023/03/26 10:08:32;;;;;;;9.50;3.10;;;11.30;99.90;;;;;;4971195;28;20054;-83
2023/03/26 10:11:17;;;;;;;12.75;3.60;;;11.30;99.90;;;;;;4968847;28;20599;-83
2023/03/26 10:14:06;;;;;;;10.65;3.38;;;11.20;99.90;;;;;;4962751;28;20038;-80
2023/03/26 10:16:50;;;;;;;14.68;3.72;;;11.20;99.90;;;;;;4973428;28;20037;-81
2023/03/26 10:19:24;;;;;;;17.30;4.15;;;11.20;99.90;;;;;;4971658;28;20040;-82
2023/03/26 10:21:50;;;;;;;9.07;3.55;;;11.10;99.90;;;;;;4975223;28;20169;-81
2023/03/26 10:24:44;;;;;;;513.95;136.30;;;11.00;99.90;;;;;;4956855;28;20331;-83
2023/03/26 10:27:16;;;;;;;38.17;15.48;;;11.00;99.90;;;;;;4957055;28;20121;-80
2023/03/26 10:30:19;;;;;;;10.27;4.25;;;11.10;99.90;;;;;;4975219;28;20583;-83
2023/03/26 10:33:00;;;;;;;7.97;3.08;;;11.10;99.90;;;;;;4975356;28;20870;-82
2023/03/26 10:35:25;;;;;;;9.35;3.58;;;11.10;99.90;;;;;;4974075;28;20062;-83
2023/03/26 10:38:00;;;;;;;7.45;3.22;;;11.10;99.90;;;;;;4966980;28;20127;-83
2023/03/26 10:40:42;;;;;;;14.15;3.95;;;11.10;99.90;;;;;;4955188;28;20035;-82
2023/03/26 10:43:35;;;;;;;9.00;3.65;;;11.00;99.90;;;;;;4973550;28;20038;-84
2023/03/26 10:46:27;;;;;;;8.13;2.97;;;11.00;99.90;;;;;;4973148;28;20089;-83
2023/03/26 10:48:53;;;;;;;9.63;2.97;;;11.20;99.90;;;;;;4975289;28;20030;-83
2023/03/26 10:51:25;;;;;;;9.48;2.80;;;11.20;99.90;;;;;;4954382;28;20058;-83
2023/03/26 10:53:50;;;;;;;5.15;2.40;;;11.20;99.90;;;;;;4962760;28;20030;-83
2023/03/26 10:56:22;;;;;;;12.32;2.67;;;11.20;99.90;;;;;;4980918;28;20807;-85
2023/03/26 10:58:48;;;;;;;6.78;2.22;;;11.30;99.90;;;;;;4960665;28;20062;-78
2023/03/26 11:01:39;;;;;;;4.65;2.30;;;11.30;99.90;;;;;;4970829;28;20505;-79
2023/03/26 11:04:18;;;;;;;8.13;2.75;;;11.30;99.90;;;;;;4968180;28;20023;-91
2023/03/26 11:07:02;;;;;;;6.07;1.98;;;11.30;99.90;;;;;;4958491;28;20046;-86
2023/03/26 11:09:28;;;;;;;6.53;2.00;;;11.30;99.90;;;;;;4974925;28;20061;-85
2023/03/26 11:12:36;;;;;;;10.35;2.70;;;11.30;99.90;;;;;;4970931;28;20042;-85
2023/03/26 11:15:37;;;;;;;9.38;2.30;;;11.40;99.90;;;;;;4960601;28;20514;-84
2023/03/26 11:18:12;;;;;;;6.55;1.85;;;11.60;99.90;;;;;;4973494;28;20030;-86
2023/03/26 11:21:03;;;;;;;7.28;2.33;;;11.70;99.90;;;;;;4971405;28;20117;-85
2023/03/26 11:23:45;;;;;;;7.57;2.25;;;11.80;99.90;;;;;;4973718;28;20093;-86
2023/03/26 11:26:37;;;;;;;8.03;2.53;;;11.80;99.90;;;;;;4957768;28;20482;-86
2023/03/26 11:29:02;;;;;;;6.70;2.10;;;11.90;99.90;;;;;;4961225;28;20026;-85
2023/03/26 11:31:37;;;;;;;5.13;1.70;;;12.00;99.90;;;;;;4981966;28;20090;-86
2023/03/26 11:34:14;;;;;;;8.02;2.55;;;12.10;99.90;;;;;;4973942;28;20031;-86
2023/03/26 11:36:46;;;;;;;7.05;1.90;;;12.10;99.90;;;;;;4972331;28;20022;-81
2023/03/26 11:39:21;;;;;;;814.60;299.95;;;12.10;99.90;;;;;;4972372;28;20530;-86
2023/03/26 11:41:51;;;;;;;18.13;7.05;;;12.20;99.90;;;;;;4961745;28;20027;-84
2023/03/26 11:44:31;;;;;;;7.95;1.90;;;12.30;99.90;;;;;;4963324;28;20374;-83
2023/03/26 11:47:03;;;;;;;4.97;1.60;;;12.20;99.90;;;;;;4973969;28;20100;-83
2023/03/26 11:49:29;;;;;;;4.07;1.95;;;12.50;99.90;;;;;;4972842;28;20598;-85
2023/03/26 11:51:55;;;;;;;4.13;1.55;;;12.70;99.90;;;;;;4978671;28;20099;-86
2023/03/26 11:54:23;;;;;;;4.07;1.40;;;12.80;99.90;;;;;;4974849;28;20456;-85
2023/03/26 11:57:14;;;;;;;6.15;1.83;;;12.90;99.90;;;;;;4962494;28;20066;-85
2023/03/26 11:59:42;;;;;;;3.28;1.33;;;13.00;99.90;;;;;;4958753;28;20223;-85
2023/03/26 12:02:08;;;;;;;3.78;1.23;;;13.00;99.90;;;;;;4961622;28;20065;-84
2023/03/26 12:04:36;;;;;;;6.15;1.25;;;13.00;99.90;;;;;;4976348;28;20054;-85
2023/03/26 12:07:17;;;;;;;2.72;1.35;;;13.10;99.90;;;;;;4956801;28;20027;-84
2023/03/26 12:09:52;;;;;;;2.25;1.20;;;13.10;99.90;;;;;;4959989;28;20039;-85
2023/03/26 12:12:20;;;;;;;3.00;0.98;;;13.00;99.90;;;;;;4972604;28;20034;-85
2023/03/26 12:14:47;;;;;;;246.40;77.03;;;13.00;99.90;;;;;;4957976;28;20029;-83
2023/03/26 12:17:26;;;;;;;3.38;1.65;;;12.90;99.90;;;;;;4958089;28;20439;-85
2023/03/26 12:19:54;;;;;;;5.85;1.65;;;13.00;99.90;;;;;;4972765;28;20088;-83
2023/03/26 12:22:36;;;;;;;5.15;1.83;;;12.90;99.90;;;;;;4970864;28;20435;-85
2023/03/26 12:25:16;;;;;;;2.22;1.20;;;12.90;99.90;;;;;;4959092;28;20036;-84
2023/03/26 12:27:46;;;;;;;3.60;1.40;;;12.90;99.90;;;;;;4971855;28;20764;-84
2023/03/26 12:30:24;;;;;;;1.40;1.30;;;13.00;99.90;;;;;;4956492;28;20053;-88
2023/03/26 12:32:55;;;;;;;3.28;1.52;;;13.10;99.90;;;;;;4969068;28;20030;-86
2023/03/26 12:35:29;;;;;;;5.57;1.85;;;13.10;99.90;;;;;;4957805;28;20026;-81
2023/03/26 12:38:13;;;;;;;4.47;1.77;;;13.10;99.90;;;;;;4972438;28;20121;-82
2023/03/26 12:40:41;;;;;;;4.18;2.10;;;13.10;99.90;;;;;;4970492;28;20383;-84
2023/03/26 12:43:21;;;;;;;2.97;1.70;;;13.10;99.90;;;;;;4958216;28;20026;-83
2023/03/26 12:45:52;;;;;;;4.78;2.05;;;12.90;99.90;;;;;;4973212;28;20065;-83
2023/03/26 12:48:18;;;;;;;5.63;2.30;;;12.70;99.90;;;;;;4954969;28;20034;-82
2023/03/26 12:51:11;;;;;;;6.38;2.17;;;12.60;99.90;;;;;;4976501;28;20113;-83
2023/03/26 12:53:57;;;;;;;4.65;1.90;;;12.50;99.90;;;;;;4963671;28;20045;-83
2023/03/26 12:56:46;;;;;;;409.77;151.63;;;12.50;99.90;;;;;;4974458;28;20031;-83
2023/03/26 12:59:41;;;;;;;7.32;3.33;;;12.50;99.90;;;;;;4970199;28;20439;-81
2023/03/26 13:02:34;;;;;;;2.30;1.65;;;12.50;99.90;;;;;;4967857;28;21618;-81
2023/03/26 13:05:08;;;;;;;2.85;1.15;;;12.50;99.90;;;;;;4952525;28;20038;-82
2023/03/26 13:07:49;;;;;;;225.40;77.57;;;12.40;99.90;;;;;;4966677;28;20237;-81
2023/03/26 13:10:40;;;;;;;6.40;2.33;;;12.50;99.90;;;;;;4970047;28;20042;-79
2023/03/26 13:13:25;;;;;;;3.05;1.38;;;12.60;99.90;;;;;;4972070;28;20033;-86
2023/03/26 13:15:58;;;;;;;2.70;1.45;;;12.60;99.90;;;;;;4974690;28;20022;-86